Sapelo Island, Georgia
Current Conditions -  °F | °C
As of 4:15 AM on Friday 26 Dec 2014 (Local Time) from KBQK Reporting Station
Overcast Overcast  
Wind Chill: 36°   Ceiling: 500
Heat Index: 36°   Visibility: 0.75mi
Dew Point: 36°   Wind: 0mph
Humidity: 100%   Direction: NA
Pressure: 30.28"   Gusts: NA
Location:  31.4°N, 81.28°W
Report Text: KBQK 260915Z AUTO 00000KT 3/4SM VV005 02/02 A3028 RMK AO1
Loading
Personal Weather Stations






























Interactive Weather Map New forecast layout! Learn more

10-Day Weather Forecast

Advertisements
Track Severe Weather on mobile